sensor_id;sensor_type;location;lat;lon;timestamp;pressure;altitude;pressure_sealevel;temperature;humidity
6216;BME280;3141;49.234;9.326;2023-12-20T00:00:28;99733.91;;;9.03;86.15
6216;BME280;3141;49.234;9.326;2023-12-20T00:01:10;99723.75;;;9.08;85.43
6216;BME280;3141;49.234;9.326;2023-12-20T00:01:53;99732.66;;;9.07;85.25
6216;BME280;3141;49.234;9.326;2023-12-20T00:02:35;99739.03;;;9.05;85.46
6216;BME280;3141;49.234;9.326;2023-12-20T00:03:17;99729.47;;;9.04;86.21
6216;BME280;3141;49.234;9.326;2023-12-20T00:03:59;99729.31;;;9.05;85.79
6216;BME280;3141;49.234;9.326;2023-12-20T00:04:42;99732.09;;;9.04;85.38
6216;BME280;3141;49.234;9.326;2023-12-20T00:05:24;99728.78;;;9.02;85.55
6216;BME280;3141;49.234;9.326;2023-12-20T00:06:06;99725.44;;;9.00;85.92
6216;BME280;3141;49.234;9.326;2023-12-20T00:06:49;99719.53;;;8.88;85.84
6216;BME280;3141;49.234;9.326;2023-12-20T00:07:31;99722.16;;;8.88;86.46
6216;BME280;3141;49.234;9.326;2023-12-20T00:08:13;99725.63;;;8.89;86.46
6216;BME280;3141;49.234;9.326;2023-12-20T00:08:56;99726.56;;;8.97;85.92
6216;BME280;3141;49.234;9.326;2023-12-20T00:09:39;99728.66;;;8.94;85.96
6216;BME280;3141;49.234;9.326;2023-12-20T00:10:22;99731.81;;;8.97;85.64
6216;BME280;3141;49.234;9.326;2023-12-20T00:11:04;99731.03;;;8.87;86.30
6216;BME280;3141;49.234;9.326;2023-12-20T00:11:47;99728.53;;;8.86;86.38
6216;BME280;3141;49.234;9.326;2023-12-20T00:12:29;99724.94;;;8.87;86.53
6216;BME280;3141;49.234;9.326;2023-12-20T00:13:11;99717.16;;;8.85;86.41
6216;BME280;3141;49.234;9.326;2023-12-20T00:13:54;99719.38;;;8.90;86.39
6216;BME280;3141;49.234;9.326;2023-12-20T00:14:36;99719.25;;;8.91;86.26
6216;BME280;3141;49.234;9.326;2023-12-20T00:15:18;99723.81;;;8.89;86.57
6216;BME280;3141;49.234;9.326;2023-12-20T00:16:00;99720.88;;;8.92;85.97
6216;BME280;3141;49.234;9.326;2023-12-20T00:16:43;99719.94;;;8.93;86.21
6216;BME280;3141;49.234;9.326;2023-12-20T00:17:25;99712.16;;;8.92;86.06
6216;BME280;3141;49.234;9.326;2023-12-20T00:18:07;99716.00;;;8.97;86.28
6216;BME280;3141;49.234;9.326;2023-12-20T00:18:50;99721.56;;;8.94;86.28
6216;BME280;3141;49.234;9.326;2023-12-20T00:19:32;99720.88;;;8.92;86.59
6216;BME280;3141;49.234;9.326;2023-12-20T00:20:14;99716.69;;;8.99;85.90
6216;BME280;3141;49.234;9.326;2023-12-20T00:20:57;99718.91;;;9.04;85.53
6216;BME280;3141;49.234;9.326;2023-12-20T00:21:39;99721.97;;;8.99;85.69
6216;BME280;3141;49.234;9.326;2023-12-20T00:22:21;99718.25;;;8.92;86.01
6216;BME280;3141;49.234;9.326;2023-12-20T00:23:04;99714.91;;;9.00;85.84
6216;BME280;3141;49.234;9.326;2023-12-20T00:23:46;99716.28;;;9.04;85.45
6216;BME280;3141;49.234;9.326;2023-12-20T00:24:28;99713.34;;;9.07;85.44
6216;BME280;3141;49.234;9.326;2023-12-20T00:25:11;99719.59;;;9.06;85.61
6216;BME280;3141;49.234;9.326;2023-12-20T00:25:53;99715.44;;;9.03;85.47
6216;BME280;3141;49.234;9.326;2023-12-20T00:26:35;99713.50;;;9.05;85.04
6216;BME280;3141;49.234;9.326;2023-12-20T00:27:18;99715.97;;;9.07;85.27
6216;BME280;3141;49.234;9.326;2023-12-20T00:28:00;99711.28;;;9.01;85.47
6216;BME280;3141;49.234;9.326;2023-12-20T00:28:42;99715.69;;;9.10;85.25
6216;BME280;3141;49.234;9.326;2023-12-20T00:29:25;99716.06;;;9.15;84.69
6216;BME280;3141;49.234;9.326;2023-12-20T00:30:08;99716.78;;;9.17;84.45
6216;BME280;3141;49.234;9.326;2023-12-20T00:30:50;99713.50;;;9.05;84.58
6216;BME280;3141;49.234;9.326;2023-12-20T00:31:32;99713.09;;;9.00;85.13
6216;BME280;3141;49.234;9.326;2023-12-20T00:32:15;99714.06;;;8.99;85.60
6216;BME280;3141;49.234;9.326;2023-12-20T00:32:58;99707.75;;;8.73;86.11
6216;BME280;3141;49.234;9.326;2023-12-20T00:33:40;99712.22;;;8.73;86.78
6216;BME280;3141;49.234;9.326;2023-12-20T00:34:25;99705.44;;;8.70;87.00
6216;BME280;3141;49.234;9.326;2023-12-20T00:35:07;99706.13;;;8.72;87.10
6216;BME280;3141;49.234;9.326;2023-12-20T00:35:50;99710.84;;;8.78;86.88
6216;BME280;3141;49.234;9.326;2023-12-20T00:36:32;99699.00;;;8.82;86.89
6216;BME280;3141;49.234;9.326;2023-12-20T00:37:14;99699.56;;;8.86;86.36
6216;BME280;3141;49.234;9.326;2023-12-20T00:37:58;99695.13;;;8.86;86.13
6216;BME280;3141;49.234;9.326;2023-12-20T00:38:40;99692.41;;;8.69;86.98
6216;BME280;3141;49.234;9.326;2023-12-20T00:39:23;99702.78;;;8.70;87.39
6216;BME280;3141;49.234;9.326;2023-12-20T00:40:06;99700.84;;;8.72;87.33
6216;BME280;3141;49.234;9.326;2023-12-20T00:40:49;99704.72;;;8.68;87.41
6216;BME280;3141;49.234;9.326;2023-12-20T00:41:31;99694.88;;;8.70;87.56
6216;BME280;3141;49.234;9.326;2023-12-20T00:42:14;99691.94;;;8.73;87.26
6216;BME280;3141;49.234;9.326;2023-12-20T00:42:56;99694.03;;;8.79;86.82
6216;BME280;3141;49.234;9.326;2023-12-20T00:43:38;99700.44;;;8.67;87.29
6216;BME280;3141;49.234;9.326;2023-12-20T00:44:21;99688.66;;;8.71;87.17
6216;BME280;3141;49.234;9.326;2023-12-20T00:45:03;99700.28;;;8.78;86.88
6216;BME280;3141;49.234;9.326;2023-12-20T00:45:46;99691.69;;;8.67;87.51
6216;BME280;3141;49.234;9.326;2023-12-20T00:46:29;99691.44;;;8.60;87.70
6216;BME280;3141;49.234;9.326;2023-12-20T00:47:11;99695.06;;;8.59;87.89
6216;BME280;3141;49.234;9.326;2023-12-20T00:47:54;99691.91;;;8.56;88.04
6216;BME280;3141;49.234;9.326;2023-12-20T00:48:36;99690.94;;;8.47;88.60
6216;BME280;3141;49.234;9.326;2023-12-20T00:49:18;99696.75;;;8.51;88.81
6216;BME280;3141;49.234;9.326;2023-12-20T00:50:00;99692.84;;;8.64;88.22
6216;BME280;3141;49.234;9.326;2023-12-20T00:50:43;99691.09;;;8.82;87.47
6216;BME280;3141;49.234;9.326;2023-12-20T00:51:25;99686.75;;;8.54;87.97
6216;BME280;3141;49.234;9.326;2023-12-20T00:52:07;99683.16;;;8.55;88.21
6216;BME280;3141;49.234;9.326;2023-12-20T00:52:50;99696.72;;;8.60;88.42
6216;BME280;3141;49.234;9.326;2023-12-20T00:53:32;99692.97;;;8.63;88.39
6216;BME280;3141;49.234;9.326;2023-12-20T00:54:14;99689.66;;;8.61;88.44
6216;BME280;3141;49.234;9.326;2023-12-20T00:54:57;99684.94;;;8.64;87.95
6216;BME280;3141;49.234;9.326;2023-12-20T00:55:39;99687.28;;;8.58;88.79
6216;BME280;3141;49.234;9.326;2023-12-20T00:56:22;99678.81;;;8.64;88.21
6216;BME280;3141;49.234;9.326;2023-12-20T00:57:05;99682.28;;;8.64;88.38
6216;BME280;3141;49.234;9.326;2023-12-20T00:57:47;99678.69;;;8.65;88.28
6216;BME280;3141;49.234;9.326;2023-12-20T00:58:29;99683.09;;;8.74;87.88
6216;BME280;3141;49.234;9.326;2023-12-20T00:59:11;99677.44;;;8.69;88.24
6216;BME280;3141;49.234;9.326;2023-12-20T00:59:54;99679.94;;;8.61;88.40
6216;BME280;3141;49.234;9.326;2023-12-20T01:00:36;99682.00;;;8.58;88.83
6216;BME280;3141;49.234;9.326;2023-12-20T01:01:18;99674.25;;;8.56;88.57
6216;BME280;3141;49.234;9.326;2023-12-20T01:02:01;99680.94;;;8.51;89.04
6216;BME280;3141;49.234;9.326;2023-12-20T01:02:43;99674.25;;;8.56;88.86
6216;BME280;3141;49.234;9.326;2023-12-20T01:03:26;99678.38;;;8.68;88.52
6216;BME280;3141;49.234;9.326;2023-12-20T01:04:08;99682.84;;;8.68;88.15
6216;BME280;3141;49.234;9.326;2023-12-20T01:04:50;99678.44;;;8.59;88.25
6216;BME280;3141;49.234;9.326;2023-12-20T01:05:32;99681.22;;;8.57;88.72
6216;BME280;3141;49.234;9.326;2023-12-20T01:06:15;99677.88;;;8.46;89.38
6216;BME280;3141;49.234;9.326;2023-12-20T01:06:57;99680.41;;;8.47;89.63
6216;BME280;3141;49.234;9.326;2023-12-20T01:07:40;99679.69;;;8.55;89.57
6216;BME280;3141;49.234;9.326;2023-12-20T01:08:22;99685.09;;;8.53;89.26
6216;BME280;3141;49.234;9.326;2023-12-20T01:09:04;99679.56;;;8.47;89.41
6216;BME280;3141;49.234;9.326;2023-12-20T01:09:47;99678.97;;;8.62;89.29
6216;BME280;3141;49.234;9.326;2023-12-20T01:10:29;99682.84;;;8.58;89.11
6216;BME280;3141;49.234;9.326;2023-12-20T01:11:11;99686.63;;;8.46;89.64
6216;BME280;3141;49.234;9.326;2023-12-20T01:11:54;99681.69;;;8.24;90.47
6216;BME280;3141;49.234;9.326;2023-12-20T01:12:36;99681.50;;;8.45;90.16
6216;BME280;3141;49.234;9.326;2023-12-20T01:13:19;99682.59;;;8.42;89.78
6216;BME280;3141;49.234;9.326;2023-12-20T01:14:01;99680.41;;;8.47;89.72
6216;BME280;3141;49.234;9.326;2023-12-20T01:14:43;99676.78;;;8.48;89.43
6216;BME280;3141;49.234;9.326;2023-12-20T01:15:26;99680.13;;;8.50;89.81
6216;BME280;3141;49.234;9.326;2023-12-20T01:16:11;99682.06;;;8.48;89.66
6216;BME280;3141;49.234;9.326;2023-12-20T01:16:54;99682.91;;;8.39;89.92
6216;BME280;3141;49.234;9.326;2023-12-20T01:17:36;99678.16;;;8.52;89.76
6216;BME280;3141;49.234;9.326;2023-12-20T01:18:18;99674.84;;;8.50;90.03
6216;BME280;3141;49.234;9.326;2023-12-20T01:19:01;99679.66;;;8.64;89.44
6216;BME280;3141;49.234;9.326;2023-12-20T01:19:43;99686.19;;;8.60;89.17
6216;BME280;3141;49.234;9.326;2023-12-20T01:20:25;99686.75;;;8.54;89.06
6216;BME280;3141;49.234;9.326;2023-12-20T01:21:08;99678.84;;;8.54;89.36
6216;BME280;3141;49.234;9.326;2023-12-20T01:21:50;99679.94;;;8.61;89.40
6216;BME280;3141;49.234;9.326;2023-12-20T01:22:32;99674.00;;;8.59;89.46
6216;BME280;3141;49.234;9.326;2023-12-20T01:23:14;99679.81;;;8.63;89.04
6216;BME280;3141;49.234;9.326;2023-12-20T01:23:57;99684.53;;;8.59;89.11
6216;BME280;3141;49.234;9.326;2023-12-20T01:24:39;99682.16;;;8.56;89.72
6216;BME280;3141;49.234;9.326;2023-12-20T01:25:21;99683.44;;;8.52;90.13
6216;BME280;3141;49.234;9.326;2023-12-20T01:26:04;99685.66;;;8.47;90.21
6216;BME280;3141;49.234;9.326;2023-12-20T01:26:47;99679.31;;;8.40;90.34
6216;BME280;3141;49.234;9.326;2023-12-20T01:27:29;99683.03;;;8.47;90.53
6216;BME280;3141;49.234;9.326;2023-12-20T01:28:13;99681.78;;;8.42;90.72
6216;BME280;3141;49.234;9.326;2023-12-20T01:28:55;99679.41;;;8.48;90.71
6216;BME280;3141;49.234;9.326;2023-12-20T01:29:37;99676.78;;;8.48;90.75
6216;BME280;3141;49.234;9.326;2023-12-20T01:30:20;99682.00;;;8.67;90.16
6216;BME280;3141;49.234;9.326;2023-12-20T01:31:03;99675.75;;;8.68;89.89
6216;BME280;3141;49.234;9.326;2023-12-20T01:31:46;99671.31;;;8.69;89.42
6216;BME280;3141;49.234;9.326;2023-12-20T01:32:28;99669.97;;;8.55;89.68
6216;BME280;3141;49.234;9.326;2023-12-20T01:33:10;99670.38;;;8.60;89.49
6216;BME280;3141;49.234;9.326;2023-12-20T01:33:53;99667.19;;;8.57;89.75
6216;BME280;3141;49.234;9.326;2023-12-20T01:34:35;99675.34;;;8.63;89.74
6216;BME280;3141;49.234;9.326;2023-12-20T01:35:18;99676.28;;;8.72;89.17
6216;BME280;3141;49.234;9.326;2023-12-20T01:36:00;99672.72;;;8.63;89.20
6216;BME280;3141;49.234;9.326;2023-12-20T01:36:42;99676.19;;;8.64;89.06
6216;BME280;3141;49.234;9.326;2023-12-20T01:37:25;99674.16;;;8.48;89.79
6216;BME280;3141;49.234;9.326;2023-12-20T01:38:08;99675.69;;;8.51;90.25
6216;BME280;3141;49.234;9.326;2023-12-20T01:38:51;99676.50;;;8.51;90.39
6216;BME280;3141;49.234;9.326;2023-12-20T01:39:33;99669.97;;;8.55;89.79
6216;BME280;3141;49.234;9.326;2023-12-20T01:40:15;99670.38;;;8.60;90.11
6216;BME280;3141;49.234;9.326;2023-12-20T01:40:58;99672.31;;;8.58;90.09
6216;BME280;3141;49.234;9.326;2023-12-20T01:41:41;99669.97;;;8.55;90.59
6216;BME280;3141;49.234;9.326;2023-12-20T01:42:23;99675.91;;;8.67;89.79
6216;BME280;3141;49.234;9.326;2023-12-20T01:43:07;99670.31;;;8.70;89.90
6216;BME280;3141;49.234;9.326;2023-12-20T01:43:50;99672.09;;;8.79;89.60
6216;BME280;3141;49.234;9.326;2023-12-20T01:44:32;99670.78;;;8.65;89.25
6216;BME280;3141;49.234;9.326;2023-12-20T01:45:15;99673.50;;;8.73;89.35
6216;BME280;3141;49.234;9.326;2023-12-20T01:45:57;99681.25;;;8.84;88.58
6216;BME280;3141;49.234;9.326;2023-12-20T01:46:40;99679.41;;;8.94;88.28
6216;BME280;3141;49.234;9.326;2023-12-20T01:47:22;99674.72;;;8.88;88.56
6216;BME280;3141;49.234;9.326;2023-12-20T01:48:06;99674.31;;;8.83;88.31
6216;BME280;3141;49.234;9.326;2023-12-20T01:48:49;99676.13;;;8.83;89.27
6216;BME280;3141;49.234;9.326;2023-12-20T01:49:32;99681.41;;;8.83;88.78
6216;BME280;3141;49.234;9.326;2023-12-20T01:50:15;99672.84;;;8.71;89.50
6216;BME280;3141;49.234;9.326;2023-12-20T01:51:01;99679.19;;;8.78;89.20
6216;BME280;3141;49.234;9.326;2023-12-20T01:51:44;99671.16;;;8.70;89.65
6216;BME280;3141;49.234;9.326;2023-12-20T01:52:27;99679.47;;;8.75;89.56
6216;BME280;3141;49.234;9.326;2023-12-20T01:53:10;99670.63;;;8.67;89.76
6216;BME280;3141;49.234;9.326;2023-12-20T01:53:55;99672.31;;;8.58;90.24
6216;BME280;3141;49.234;9.326;2023-12-20T01:54:39;99668.00;;;8.67;90.42
6216;BME280;3141;49.234;9.326;2023-12-20T01:55:22;99671.56;;;8.75;89.87
6216;BME280;3141;49.234;9.326;2023-12-20T01:56:05;99670.31;;;8.70;90.39
6216;BME280;3141;49.234;9.326;2023-12-20T01:56:48;99668.94;;;8.75;89.83
6216;BME280;3141;49.234;9.326;2023-12-20T01:57:32;99665.34;;;8.76;89.71
6216;BME280;3141;49.234;9.326;2023-12-20T01:58:15;99665.72;;;8.81;89.56
6216;BME280;3141;49.234;9.326;2023-12-20T01:58:59;99675.41;;;8.90;88.89
6216;BME280;3141;49.234;9.326;2023-12-20T01:59:42;99668.06;;;8.84;89.49
6216;BME280;3141;49.234;9.326;2023-12-20T02:00:27;99666.69;;;8.80;89.16
6216;BME280;3141;49.234;9.326;2023-12-20T02:01:10;99669.16;;;8.82;89.20
6216;BME280;3141;49.234;9.326;2023-12-20T02:01:52;99667.56;;;8.71;89.85
6216;BME280;3141;49.234;9.326;2023-12-20T02:02:36;99674.50;;;8.72;90.10
6216;BME280;3141;49.234;9.326;2023-12-20T02:03:21;99667.28;;;8.74;90.18
6216;BME280;3141;49.234;9.326;2023-12-20T02:04:03;99662.09;;;8.82;89.76
6216;BME280;3141;49.234;9.326;2023-12-20T02:04:46;99670.00;;;8.82;89.31
6216;BME280;3141;49.234;9.326;2023-12-20T02:05:30;99668.47;;;8.89;89.19
6216;BME280;3141;49.234;9.326;2023-12-20T02:06:13;99663.81;;;8.74;89.24
6216;BME280;3141;49.234;9.326;2023-12-20T02:06:56;99666.44;;;8.74;90.32
6216;BME280;3141;49.234;9.326;2023-12-20T02:07:38;99664.03;;;8.80;89.91
6216;BME280;3141;49.234;9.326;2023-12-20T02:08:20;99669.47;;;8.79;89.71
6216;BME280;3141;49.234;9.326;2023-12-20T02:09:03;99665.88;;;8.80;89.55
6216;BME280;3141;49.234;9.326;2023-12-20T02:09:45;99667.81;;;8.78;90.21
6216;BME280;3141;49.234;9.326;2023-12-20T02:10:28;99669.88;;;8.84;89.77
6216;BME280;3141;49.234;9.326;2023-12-20T02:11:11;99673.03;;;8.87;89.17
6216;BME280;3141;49.234;9.326;2023-12-20T02:11:54;99667.66;;;8.79;89.80
6216;BME280;3141;49.234;9.326;2023-12-20T02:12:36;99667.78;;;8.87;89.68
6216;BME280;3141;49.234;9.326;2023-12-20T02:13:18;99665.66;;;8.64;90.29
6216;BME280;3141;49.234;9.326;2023-12-20T02:14:01;99663.66;;;8.75;90.14
6216;BME280;3141;49.234;9.326;2023-12-20T02:14:43;99666.28;;;8.75;90.06
6216;BME280;3141;49.234;9.326;2023-12-20T02:15:26;99667.81;;;8.78;89.86
6216;BME280;3141;49.234;9.326;2023-12-20T02:16:08;99661.53;;;8.88;89.61
6216;BME280;3141;49.234;9.326;2023-12-20T02:16:50;99667.66;;;8.79;89.25
6216;BME280;3141;49.234;9.326;2023-12-20T02:17:33;99664.94;;;8.71;89.98
6216;BME280;3141;49.234;9.326;2023-12-20T02:18:16;99661.22;;;8.64;90.73
6216;BME280;3141;49.234;9.326;2023-12-20T02:18:58;99668.94;;;8.75;90.42
6216;BME280;3141;49.234;9.326;2023-12-20T02:19:41;99663.94;;;8.72;89.99
6216;BME280;3141;49.234;9.326;2023-12-20T02:20:23;99674.19;;;8.85;89.81
6216;BME280;3141;49.234;9.326;2023-12-20T02:21:05;99664.25;;;8.96;89.17
6216;BME280;3141;49.234;9.326;2023-12-20T02:21:48;99665.81;;;8.89;89.08
6216;BME280;3141;49.234;9.326;2023-12-20T02:22:30;99661.56;;;8.79;89.01
6216;BME280;3141;49.234;9.326;2023-12-20T02:23:12;99668.94;;;8.75;89.66
6216;BME280;3141;49.234;9.326;2023-12-20T02:23:55;99668.66;;;8.78;90.09
6216;BME280;3141;49.234;9.326;2023-12-20T02:24:38;99658.59;;;8.64;90.04
6216;BME280;3141;49.234;9.326;2023-12-20T02:25:20;99658.72;;;8.63;90.52
6216;BME280;3141;49.234;9.326;2023-12-20T02:26:04;99661.22;;;8.64;90.82
6216;BME280;3141;49.234;9.326;2023-12-20T02:26:46;99653.88;;;8.58;91.20
6216;BME280;3141;49.234;9.326;2023-12-20T02:27:29;99660.97;;;8.48;91.32
6216;BME280;3141;49.234;9.326;2023-12-20T02:28:11;99661.00;;;8.39;91.72
6216;BME280;3141;49.234;9.326;2023-12-20T02:28:54;99658.91;;;8.42;92.36
6216;BME280;3141;49.234;9.326;2023-12-20T02:29:36;99657.41;;;8.40;92.20
6216;BME280;3141;49.234;9.326;2023-12-20T02:30:19;99646.41;;;8.44;92.45
6216;BME280;3141;49.234;9.326;2023-12-20T02:31:02;99655.97;;;8.55;91.89
6216;BME280;3141;49.234;9.326;2023-12-20T02:31:44;99651.22;;;8.58;91.52
6216;BME280;3141;49.234;9.326;2023-12-20T02:32:27;99656.34;;;8.69;91.07
6216;BME280;3141;49.234;9.326;2023-12-20T02:33:10;99654.66;;;8.68;90.65
6216;BME280;3141;49.234;9.326;2023-12-20T02:33:54;99654.97;;;8.65;90.99
6216;BME280;3141;49.234;9.326;2023-12-20T02:34:37;99650.00;;;8.62;91.05
6216;BME280;3141;49.234;9.326;2023-12-20T02:35:19;99653.19;;;8.56;91.31
6216;BME280;3141;49.234;9.326;2023-12-20T02:36:01;99648.91;;;8.55;91.52
6216;BME280;3141;49.234;9.326;2023-12-20T02:36:44;99653.31;;;8.64;91.31
6216;BME280;3141;49.234;9.326;2023-12-20T02:37:26;99654.94;;;8.75;90.68
6216;BME280;3141;49.234;9.326;2023-12-20T02:38:08;99652.16;;;8.76;90.50
6216;BME280;3141;49.234;9.326;2023-12-20T02:38:51;99654.78;;;8.76;89.94
6216;BME280;3141;49.234;9.326;2023-12-20T02:39:33;99651.38;;;8.57;90.24
6216;BME280;3141;49.234;9.326;2023-12-20T02:40:15;99654.03;;;8.57;90.81
6216;BME280;3141;49.234;9.326;2023-12-20T02:40:58;99660.53;;;8.62;90.66
6216;BME280;3141;49.234;9.326;2023-12-20T02:41:40;99653.94;;;8.76;90.30
6216;BME280;3141;49.234;9.326;2023-12-20T02:42:22;99652.78;;;8.61;90.46
6216;BME280;3141;49.234;9.326;2023-12-20T02:43:04;99654.56;;;8.60;90.54
6216;BME280;3141;49.234;9.326;2023-12-20T02:43:47;99649.06;;;8.44;90.50
6216;BME280;3141;49.234;9.326;2023-12-20T02:44:29;99643.78;;;8.54;90.93
6216;BME280;3141;49.234;9.326;2023-12-20T02:45:12;99652.47;;;8.64;90.12
6216;BME280;3141;49.234;9.326;2023-12-20T02:45:54;99648.78;;;8.47;90.44
6216;BME280;3141;49.234;9.326;2023-12-20T02:46:36;99649.03;;;8.54;90.91
6216;BME280;3141;49.234;9.326;2023-12-20T02:47:19;99653.16;;;8.66;90.65
6216;BME280;3141;49.234;9.326;2023-12-20T02:48:01;99661.03;;;8.75;90.00
6216;BME280;3141;49.234;9.326;2023-12-20T02:48:44;99659.53;;;8.73;90.01
6216;BME280;3141;49.234;9.326;2023-12-20T02:49:26;99656.69;;;8.84;89.51
6216;BME280;3141;49.234;9.326;2023-12-20T02:50:08;99654.09;;;8.74;89.42
6216;BME280;3141;49.234;9.326;2023-12-20T02:50:51;99649.94;;;8.72;89.84
6216;BME280;3141;49.234;9.326;2023-12-20T02:51:33;99662.09;;;8.82;89.00
6216;BME280;3141;49.234;9.326;2023-12-20T02:52:15;99654.78;;;8.76;89.20
6216;BME280;3141;49.234;9.326;2023-12-20T02:52:58;99656.72;;;8.74;89.18
6216;BME280;3141;49.234;9.326;2023-12-20T02:53:40;99660.63;;;8.70;89.33
6216;BME280;3141;49.234;9.326;2023-12-20T02:54:22;99663.94;;;8.72;89.43
6216;BME280;3141;49.234;9.326;2023-12-20T02:55:05;99666.28;;;8.75;89.06
6216;BME280;3141;49.234;9.326;2023-12-20T02:55:47;99669.72;;;8.85;89.27
6216;BME280;3141;49.234;9.326;2023-12-20T02:56:29;99661.47;;;8.71;88.88
6216;BME280;3141;49.234;9.326;2023-12-20T02:57:12;99662.00;;;8.74;89.26
6216;BME280;3141;49.234;9.326;2023-12-20T02:57:54;99661.75;;;8.68;89.66
6216;BME280;3141;49.234;9.326;2023-12-20T02:58:36;99668.50;;;8.80;89.07
6216;BME280;3141;49.234;9.326;2023-12-20T02:59:19;99665.34;;;8.67;89.33
6216;BME280;3141;49.234;9.326;2023-12-20T03:00:01;99668.22;;;8.73;89.13
6216;BME280;3141;49.234;9.326;2023-12-20T03:00:43;99664.81;;;8.63;89.81
6216;BME280;3141;49.234;9.326;2023-12-20T03:01:27;99662.06;;;8.55;89.68
6216;BME280;3141;49.234;9.326;2023-12-20T03:02:09;99673.84;;;8.61;89.55
6216;BME280;3141;49.234;9.326;2023-12-20T03:02:51;99669.78;;;8.66;89.63
6216;BME280;3141;49.234;9.326;2023-12-20T03:03:33;99670.06;;;8.73;89.17
6216;BME280;3141;49.234;9.326;2023-12-20T03:04:16;99676.72;;;8.67;88.88
6216;BME280;3141;49.234;9.326;2023-12-20T03:04:58;99667.84;;;8.68;89.40
6216;BME280;3141;49.234;9.326;2023-12-20T03:05:42;99666.19;;;8.67;89.35
6216;BME280;3141;49.234;9.326;2023-12-20T03:06:24;99674.19;;;8.75;89.05
6216;BME280;3141;49.234;9.326;2023-12-20T03:07:07;99668.22;;;8.73;89.32
6216;BME280;3141;49.234;9.326;2023-12-20T03:07:49;99664.94;;;8.71;88.95
6216;BME280;3141;49.234;9.326;2023-12-20T03:08:31;99661.22;;;8.55;89.22
6216;BME280;3141;49.234;9.326;2023-12-20T03:09:13;99657.34;;;8.59;89.78
6216;BME280;3141;49.234;9.326;2023-12-20T03:09:56;99655.41;;;8.51;89.41
6216;BME280;3141;49.234;9.326;2023-12-20T03:10:38;99666.75;;;8.61;89.79
6216;BME280;3141;49.234;9.326;2023-12-20T03:11:21;99668.38;;;8.72;89.28
6216;BME280;3141;49.234;9.326;2023-12-20T03:12:03;99670.59;;;8.76;88.76
6216;BME280;3141;49.234;9.326;2023-12-20T03:12:46;99669.22;;;8.72;89.17
6216;BME280;3141;49.234;9.326;2023-12-20T03:13:28;99669.16;;;8.82;88.55
6216;BME280;3141;49.234;9.326;2023-12-20T03:14:10;99670.13;;;8.90;88.21
6216;BME280;3141;49.234;9.326;2023-12-20T03:14:53;99671.16;;;8.70;88.73
6216;BME280;3141;49.234;9.326;2023-12-20T03:15:35;99670.56;;;8.86;88.55
6216;BME280;3141;49.234;9.326;2023-12-20T03:16:18;99671.69;;;8.83;87.89
6216;BME280;3141;49.234;9.326;2023-12-20T03:17:00;99682.88;;;8.85;87.93
6216;BME280;3141;49.234;9.326;2023-12-20T03:17:43;99680.25;;;8.85;88.32
6216;BME280;3141;49.234;9.326;2023-12-20T03:18:25;99673.03;;;8.87;88.11
6216;BME280;3141;49.234;9.326;2023-12-20T03:19:10;99677.63;;;8.85;87.81
6216;BME280;3141;49.234;9.326;2023-12-20T03:19:52;99677.78;;;8.84;88.31
6216;BME280;3141;49.234;9.326;2023-12-20T03:20:34;99681.16;;;8.76;88.10
6216;BME280;3141;49.234;9.326;2023-12-20T03:21:17;99681.16;;;8.76;88.33
6216;BME280;3141;49.234;9.326;2023-12-20T03:21:59;99676.84;;;8.75;88.49
6216;BME280;3141;49.234;9.326;2023-12-20T03:22:43;99685.81;;;8.82;88.33
6216;BME280;3141;49.234;9.326;2023-12-20T03:23:25;99677.66;;;8.76;88.83
6216;BME280;3141;49.234;9.326;2023-12-20T03:24:08;99671.97;;;8.80;88.69
6216;BME280;3141;49.234;9.326;2023-12-20T03:24:50;99678.59;;;8.84;88.20
6216;BME280;3141;49.234;9.326;2023-12-20T03:25:33;99673.25;;;8.76;88.55
6216;BME280;3141;49.234;9.326;2023-12-20T03:26:15;99683.38;;;8.71;88.83
6216;BME280;3141;49.234;9.326;2023-12-20T03:26:57;99678.38;;;8.68;88.75
6216;BME280;3141;49.234;9.326;2023-12-20T03:27:40;99672.00;;;8.71;88.94
6216;BME280;3141;49.234;9.326;2023-12-20T03:28:22;99682.22;;;8.83;88.42
6216;BME280;3141;49.234;9.326;2023-12-20T03:29:05;99679.59;;;8.83;88.42
6216;BME280;3141;49.234;9.326;2023-12-20T03:29:47;99680.69;;;8.81;87.87
6216;BME280;3141;49.234;9.326;2023-12-20T03:30:29;99673.41;;;8.65;88.83
6216;BME280;3141;49.234;9.326;2023-12-20T03:31:12;99675.19;;;8.74;88.89
6216;BME280;3141;49.234;9.326;2023-12-20T03:31:54;99677.22;;;8.80;88.67
6216;BME280;3141;49.234;9.326;2023-12-20T03:32:37;99683.03;;;8.93;87.86
6216;BME280;3141;49.234;9.326;2023-12-20T03:33:20;99682.41;;;8.99;87.47
6216;BME280;3141;49.234;9.326;2023-12-20T03:34:02;99675.69;;;8.87;87.58
6216;BME280;3141;49.234;9.326;2023-12-20T03:34:44;99681.63;;;8.89;87.92
6216;BME280;3141;49.234;9.326;2023-12-20T03:35:27;99673.66;;;8.72;88.48
6216;BME280;3141;49.234;9.326;2023-12-20T03:36:09;99687.66;;;8.72;89.22
6216;BME280;3141;49.234;9.326;2023-12-20T03:36:51;99683.41;;;8.62;88.74
6216;BME280;3141;49.234;9.326;2023-12-20T03:37:34;99684.69;;;8.48;89.60
6216;BME280;3141;49.234;9.326;2023-12-20T03:38:16;99680.91;;;8.60;89.97
6216;BME280;3141;49.234;9.326;2023-12-20T03:38:58;99678.69;;;8.65;89.64
6216;BME280;3141;49.234;9.326;2023-12-20T03:39:41;99683.38;;;8.71;89.24
6216;BME280;3141;49.234;9.326;2023-12-20T03:40:23;99687.97;;;8.69;88.99
6216;BME280;3141;49.234;9.326;2023-12-20T03:41:07;99685.78;;;8.55;89.48
6216;BME280;3141;49.234;9.326;2023-12-20T03:41:49;99688.97;;;8.59;89.71
6216;BME280;3141;49.234;9.326;2023-12-20T03:42:31;99685.03;;;8.72;89.08
6216;BME280;3141;49.234;9.326;2023-12-20T03:43:14;99691.50;;;8.87;88.90
6216;BME280;3141;49.234;9.326;2023-12-20T03:43:56;99691.06;;;8.92;87.92
6216;BME280;3141;49.234;9.326;2023-12-20T03:44:39;99681.97;;;8.77;88.26
6216;BME280;3141;49.234;9.326;2023-12-20T03:45:22;99676.13;;;8.73;88.75
6216;BME280;3141;49.234;9.326;2023-12-20T03:46:04;99680.25;;;8.85;88.44
6216;BME280;3141;49.234;9.326;2023-12-20T03:46:46;99684.03;;;8.83;88.45
6216;BME280;3141;49.234;9.326;2023-12-20T03:47:31;99680.00;;;8.79;88.14
6216;BME280;3141;49.234;9.326;2023-12-20T03:48:13;99682.66;;;8.79;88.38
6216;BME280;3141;49.234;9.326;2023-12-20T03:48:56;99677.63;;;8.85;88.40
6216;BME280;3141;49.234;9.326;2023-12-20T03:49:38;99681.09;;;8.86;87.93
6216;BME280;3141;49.234;9.326;2023-12-20T03:50:22;99683.66;;;8.68;88.82
6216;BME280;3141;49.234;9.326;2023-12-20T03:51:05;99684.19;;;8.81;88.45
6216;BME280;3141;49.234;9.326;2023-12-20T03:51:47;99684.19;;;8.81;88.21
6216;BME280;3141;49.234;9.326;2023-12-20T03:52:29;99678.06;;;8.81;88.21
6216;BME280;3141;49.234;9.326;2023-12-20T03:53:11;99682.53;;;8.71;88.36
6216;BME280;3141;49.234;9.326;2023-12-20T03:53:54;99682.09;;;8.75;88.86
6216;BME280;3141;49.234;9.326;2023-12-20T03:54:36;99682.22;;;8.83;88.59